Time;durP1;ratioP1;P1;durP2;ratioP2;P2;SDS_P1;SDS_P2;PMS_P1;PMS_P2;Temp;Humidity;BMP_temperature;BMP_pressure;BME280_temperature;BME280_humidity;BME280_pressure;Samples;Min_cycle;Max_cycle;Signal;HPM_P1;HPM_P2
2022/10/15 00:01:42;;;;;;;6.57;5.63;;;13.20;99.90;;;;;;6248016;23;20512;-40
2022/10/15 00:04:08;;;;;;;6.70;5.80;;;13.20;99.90;;;;;;6248046;23;20162;-39
2022/10/15 00:06:34;;;;;;;6.33;5.03;;;13.10;99.90;;;;;;6248001;22;20158;-39
2022/10/15 00:09:00;;;;;;;6.30;5.70;;;13.10;99.90;;;;;;6221888;23;20524;-42
2022/10/15 00:11:27;;;;;;;7.13;5.27;;;13.10;99.90;;;;;;6248122;23;20212;-40
2022/10/15 00:13:55;;;;;;;7.20;5.37;;;13.00;99.90;;;;;;6248214;23;20594;-41
2022/10/15 00:16:23;;;;;;;5.87;5.00;;;13.00;99.90;;;;;;6247985;22;20167;-38
2022/10/15 00:18:50;;;;;;;6.17;5.23;;;13.00;99.90;;;;;;6248153;23;20165;-40
2022/10/15 00:21:18;;;;;;;5.77;4.87;;;13.00;99.90;;;;;;6247852;23;20156;-38
2022/10/15 00:23:45;;;;;;;5.97;4.70;;;12.90;99.90;;;;;;6248066;23;20520;-40
2022/10/15 00:26:13;;;;;;;6.10;4.87;;;12.90;99.90;;;;;;6247890;23;20222;-40
2022/10/15 00:28:39;;;;;;;5.77;4.70;;;12.90;99.90;;;;;;6247606;22;20171;-38
2022/10/15 00:31:10;;;;;;;6.77;4.80;;;12.90;99.90;;;;;;6248314;23;20589;-41
2022/10/15 00:33:36;;;;;;;5.37;4.53;;;12.90;99.90;;;;;;6248694;23;20458;-42
2022/10/15 00:36:05;;;;;;;5.10;4.60;;;12.90;99.90;;;;;;6221172;23;20178;-42
2022/10/15 00:38:32;;;;;;;5.40;4.60;;;12.90;99.90;;;;;;6247738;22;20167;-37
2022/10/15 00:40:57;;;;;;;6.60;4.77;;;12.90;99.90;;;;;;6248068;23;20231;-42
2022/10/15 00:43:42;;;;;;;5.07;4.57;;;12.80;99.90;;;;;;6220743;23;20214;-42
2022/10/15 00:46:15;;;;;;;5.53;4.60;;;12.80;99.90;;;;;;6248292;23;20178;-39
2022/10/15 00:48:41;;;;;;;7.33;4.63;;;12.80;99.90;;;;;;6247723;22;20171;-39
2022/10/15 00:51:08;;;;;;;5.17;4.60;;;12.70;99.90;;;;;;6247659;23;20155;-38
2022/10/15 00:53:33;;;;;;;4.90;4.40;;;12.70;99.90;;;;;;6247539;23;20155;-43
2022/10/15 00:56:00;;;;;;;6.17;4.80;;;12.70;99.90;;;;;;6247539;23;20156;-38
2022/10/15 00:58:30;;;;;;;9.13;5.03;;;12.70;99.90;;;;;;6246701;22;20262;-41
2022/10/15 01:00:57;;;;;;;7.07;5.53;;;12.60;99.90;;;;;;6247877;23;20132;-39
2022/10/15 01:03:23;;;;;;;6.93;5.90;;;12.60;99.90;;;;;;6247370;23;20179;-42
2022/10/15 01:05:51;;;;;;;6.77;5.63;;;12.70;99.90;;;;;;6247383;23;20155;-39
2022/10/15 01:08:16;;;;;;;8.70;6.67;;;12.70;99.90;;;;;;6220453;23;20513;-42
2022/10/15 01:11:01;;;;;;;8.77;6.03;;;12.70;99.90;;;;;;6247522;23;20151;-41
2022/10/15 01:13:47;;;;;;;8.13;6.67;;;12.70;99.90;;;;;;6247708;23;20152;-38
2022/10/15 01:16:31;;;;;;;9.27;6.10;;;12.70;99.90;;;;;;6247689;23;20508;-40
2022/10/15 01:19:09;;;;;;;9.03;6.27;;;12.70;99.90;;;;;;6247793;23;20506;-41
2022/10/15 01:21:48;;;;;;;6.87;5.87;;;12.70;99.90;;;;;;6220485;23;20203;-38
2022/10/15 01:24:55;;;;;;;8.90;5.50;;;12.70;99.90;;;;;;6247227;23;20230;-39
2022/10/15 01:27:27;;;;;;;6.50;5.70;;;12.70;99.90;;;;;;6246782;22;20186;-40
2022/10/15 01:29:55;;;;;;;6.03;5.00;;;12.70;99.90;;;;;;6247605;23;20439;-41
2022/10/15 01:32:33;;;;;;;6.90;5.57;;;12.80;99.90;;;;;;6247119;23;20589;-39
2022/10/15 01:35:12;;;;;;;6.60;5.03;;;12.70;99.90;;;;;;6247432;23;20187;-40
2022/10/15 01:37:55;;;;;;;7.57;5.60;;;12.80;99.90;;;;;;6247287;22;20199;-41
2022/10/15 01:40:31;;;;;;;6.60;4.97;;;12.80;99.90;;;;;;6247050;23;20159;-41
2022/10/15 01:42:59;;;;;;;6.43;4.90;;;12.70;99.90;;;;;;6247812;23;20175;-39
2022/10/15 01:45:38;;;;;;;9.00;5.03;;;12.80;99.90;;;;;;6247452;23;20152;-40
2022/10/15 01:48:10;;;;;;;7.07;4.97;;;12.80;99.90;;;;;;6247429;22;20662;-43
2022/10/15 01:50:39;;;;;;;5.73;5.13;;;12.80;99.90;;;;;;6246967;23;20152;-42
2022/10/15 01:53:07;;;;;;;6.77;5.20;;;12.80;99.90;;;;;;6247612;23;20187;-41
2022/10/15 01:55:35;;;;;;;6.90;5.47;;;12.80;99.90;;;;;;6246876;23;20494;-39
2022/10/15 01:58:02;;;;;;;7.13;5.13;;;12.90;99.90;;;;;;6247265;22;20183;-39
2022/10/15 02:00:28;;;;;;;9.73;5.03;;;12.90;99.90;;;;;;6246757;23;20206;-39
2022/10/15 02:02:59;;;;;;;7.23;4.90;;;12.90;99.90;;;;;;6247116;23;20545;-40
2022/10/15 02:05:35;;;;;;;5.87;4.83;;;12.90;99.90;;;;;;6247090;23;20147;-38
2022/10/15 02:08:25;;;;;;;6.70;4.87;;;12.90;99.90;;;;;;6247176;22;20174;-39
2022/10/15 02:10:54;;;;;;;6.77;5.70;;;12.90;99.90;;;;;;6246938;23;20132;-40
2022/10/15 02:13:25;;;;;;;6.23;4.97;;;12.90;99.90;;;;;;6247036;23;20152;-40
2022/10/15 02:16:12;;;;;;;5.30;4.60;;;12.90;99.90;;;;;;6247089;23;20156;-41
2022/10/15 02:18:59;;;;;;;6.77;5.37;;;12.90;99.90;;;;;;6246575;22;20217;-37
2022/10/15 02:21:36;;;;;;;8.03;5.17;;;13.00;99.90;;;;;;6246530;23;20175;-41
2022/10/15 02:24:13;;;;;;;8.00;5.60;;;13.00;99.90;;;;;;6222659;23;20170;-41
2022/10/15 02:26:40;;;;;;;9.53;5.97;;;13.00;99.90;;;;;;6246492;22;20473;-39
2022/10/15 02:29:10;;;;;;;6.60;5.53;;;13.00;99.90;;;;;;6219822;23;20162;-41
2022/10/15 02:31:39;;;;;;;10.70;5.83;;;13.00;99.90;;;;;;6246467;23;20251;-38
2022/10/15 02:34:08;;;;;;;8.00;6.20;;;13.00;99.90;;;;;;6246531;23;20198;-40
2022/10/15 02:36:37;;;;;;;7.50;5.67;;;13.10;99.90;;;;;;6246245;22;20679;-39
2022/10/15 02:39:04;;;;;;;9.17;6.23;;;13.10;99.90;;;;;;6219619;23;20160;-40
2022/10/15 02:41:29;;;;;;;8.63;6.50;;;13.10;99.90;;;;;;6219480;23;20206;-38
2022/10/15 02:43:55;;;;;;;11.73;6.37;;;13.10;99.90;;;;;;6246515;23;20202;-41
2022/10/15 02:46:20;;;;;;;11.03;6.00;;;13.10;99.90;;;;;;6246627;22;20478;-41
2022/10/15 02:48:46;;;;;;;9.03;6.90;;;13.10;99.90;;;;;;6219639;23;20616;-39
2022/10/15 02:51:12;;;;;;;10.10;7.33;;;13.10;99.90;;;;;;6246471;23;20454;-40
2022/10/15 02:53:37;;;;;;;8.50;6.60;;;13.20;99.90;;;;;;6246628;23;20151;-41
2022/10/15 02:56:03;;;;;;;11.43;6.53;;;13.20;99.90;;;;;;6246317;23;20152;-39
2022/10/15 02:58:29;;;;;;;7.60;6.57;;;13.20;99.90;;;;;;6246166;22;20244;-37
2022/10/15 03:00:55;;;;;;;12.23;6.83;;;13.20;99.90;;;;;;6246550;23;20156;-38
2022/10/15 03:03:21;;;;;;;11.57;6.77;;;13.30;99.90;;;;;;6246587;23;20190;-39
2022/10/15 03:05:46;;;;;;;9.63;6.73;;;13.20;99.90;;;;;;6246234;23;20589;-38
2022/10/15 03:08:12;;;;;;;9.20;7.40;;;13.20;99.90;;;;;;6246816;22;20467;-40
2022/10/15 03:10:38;;;;;;;11.30;7.50;;;13.20;99.90;;;;;;6246169;23;20163;-41
2022/10/15 03:13:05;;;;;;;9.33;7.27;;;13.20;99.90;;;;;;6246186;23;20156;-38
2022/10/15 03:15:31;;;;;;;11.27;8.30;;;13.20;99.90;;;;;;6246506;23;20162;-40
2022/10/15 03:17:56;;;;;;;11.63;8.50;;;13.20;99.90;;;;;;6246464;22;20203;-40
2022/10/15 03:20:22;;;;;;;9.80;7.70;;;13.20;99.90;;;;;;6245859;23;20536;-41
2022/10/15 03:22:47;;;;;;;9.87;7.73;;;13.20;99.90;;;;;;6246311;23;20186;-39
2022/10/15 03:25:13;;;;;;;13.07;7.87;;;13.20;99.90;;;;;;6246282;23;20238;-39
2022/10/15 03:27:39;;;;;;;12.13;8.47;;;13.10;99.90;;;;;;6219193;23;20176;-39
2022/10/15 03:30:05;;;;;;;12.93;8.30;;;13.10;99.90;;;;;;6246824;23;20167;-40
2022/10/15 03:32:30;;;;;;;9.83;8.13;;;13.10;99.90;;;;;;6246527;23;20201;-39
2022/10/15 03:34:56;;;;;;;10.77;7.77;;;13.10;99.90;;;;;;6246249;23;20159;-41
2022/10/15 03:37:21;;;;;;;11.33;7.70;;;13.10;99.90;;;;;;6246582;22;20202;-39
2022/10/15 03:39:47;;;;;;;10.13;7.63;;;13.10;99.90;;;;;;6246479;23;20151;-42
2022/10/15 03:42:13;;;;;;;13.13;7.93;;;13.10;99.90;;;;;;6222448;23;20179;-42
2022/10/15 03:44:39;;;;;;;10.10;8.17;;;13.10;99.90;;;;;;6246141;23;20226;-41
2022/10/15 03:47:04;;;;;;;13.70;7.23;;;13.00;99.90;;;;;;6245961;22;20186;-41
2022/10/15 03:49:30;;;;;;;13.83;8.03;;;13.00;99.90;;;;;;6246199;23;20175;-41
2022/10/15 03:51:55;;;;;;;11.90;7.27;;;13.00;99.90;;;;;;6246775;23;20477;-38
2022/10/15 03:54:21;;;;;;;9.17;6.80;;;13.00;99.90;;;;;;6246393;23;20190;-40
2022/10/15 03:56:47;;;;;;;10.03;6.33;;;12.90;99.90;;;;;;6246456;22;20179;-41
2022/10/15 03:59:12;;;;;;;10.10;7.97;;;12.90;99.90;;;;;;6245971;23;20259;-38
2022/10/15 04:01:38;;;;;;;11.90;7.40;;;13.00;99.90;;;;;;6245749;23;20366;-43
2022/10/15 04:04:03;;;;;;;12.10;7.00;;;13.00;99.90;;;;;;6246062;23;20194;-38
2022/10/15 04:06:29;;;;;;;10.50;7.67;;;13.00;99.90;;;;;;6246192;22;20156;-40
2022/10/15 04:08:55;;;;;;;11.60;7.73;;;12.90;99.90;;;;;;6245981;23;20217;-40
2022/10/15 04:11:20;;;;;;;12.13;8.27;;;12.90;99.90;;;;;;6246072;23;20155;-39
2022/10/15 04:13:49;;;;;;;13.17;8.83;;;12.90;99.90;;;;;;6219089;23;20289;-42
2022/10/15 04:16:15;;;;;;;13.00;8.87;;;12.90;99.90;;;;;;6245813;23;20160;-41
2022/10/15 04:18:41;;;;;;;11.93;8.63;;;12.90;99.90;;;;;;6246063;22;20171;-44
2022/10/15 04:21:07;;;;;;;13.17;9.00;;;13.00;99.90;;;;;;6246408;23;20152;-43
2022/10/15 04:23:33;;;;;;;11.63;9.33;;;13.00;99.90;;;;;;6245952;23;20493;-45
2022/10/15 04:25:59;;;;;;;13.33;9.77;;;13.00;99.90;;;;;;6245991;23;20152;-42
2022/10/15 04:28:25;;;;;;;15.57;10.07;;;13.00;99.90;;;;;;6246468;22;20183;-45
2022/10/15 04:30:54;;;;;;;14.40;10.90;;;13.00;99.90;;;;;;6246974;23;20159;-43
2022/10/15 04:33:20;;;;;;;13.60;10.00;;;13.00;99.90;;;;;;6247367;23;20201;-43
2022/10/15 04:35:45;;;;;;;15.13;10.43;;;13.00;99.90;;;;;;6247740;23;20175;-46
2022/10/15 04:38:11;;;;;;;13.97;10.33;;;13.00;99.90;;;;;;6247764;22;20255;-43
2022/10/15 04:40:37;;;;;;;17.37;11.17;;;13.00;99.90;;;;;;6247652;23;20594;-44
2022/10/15 04:43:02;;;;;;;18.30;11.60;;;13.00;99.90;;;;;;6247588;23;20179;-44
2022/10/15 04:45:28;;;;;;;16.07;11.30;;;13.00;99.90;;;;;;6247954;23;20152;-44
2022/10/15 04:47:55;;;;;;;16.37;11.13;;;13.00;99.90;;;;;;6247999;22;20175;-43
2022/10/15 04:50:20;;;;;;;14.67;11.07;;;12.90;99.90;;;;;;6247480;23;20159;-44
2022/10/15 04:52:47;;;;;;;16.10;10.40;;;12.90;99.90;;;;;;6248200;23;20187;-42
2022/10/15 04:55:13;;;;;;;13.60;10.83;;;12.90;99.90;;;;;;6220727;23;20159;-43
2022/10/15 04:57:38;;;;;;;14.83;10.73;;;12.80;99.90;;;;;;6220631;23;20202;-42
2022/10/15 05:00:04;;;;;;;14.60;10.73;;;12.80;99.90;;;;;;6220983;23;20159;-43
2022/10/15 05:02:31;;;;;;;16.27;11.93;;;12.80;99.90;;;;;;6250887;23;20625;-45
2022/10/15 05:04:57;;;;;;;20.10;13.70;;;12.70;99.90;;;;;;6251836;23;20155;-45
2022/10/15 05:07:22;;;;;;;21.03;13.97;;;12.70;99.90;;;;;;6225670;23;20199;-45
2022/10/15 05:09:48;;;;;;;21.23;14.77;;;12.70;99.90;;;;;;6254787;23;20152;-44
2022/10/15 05:12:14;;;;;;;21.63;16.27;;;12.80;99.90;;;;;;6252021;23;20591;-44
2022/10/15 05:14:40;;;;;;;26.30;17.27;;;12.80;99.90;;;;;;6253627;23;20162;-43
2022/10/15 05:17:06;;;;;;;30.63;18.73;;;12.80;99.90;;;;;;6227224;23;20218;-43
2022/10/15 05:19:31;;;;;;;33.63;20.23;;;12.70;99.90;;;;;;6253609;23;20152;-44
2022/10/15 05:21:57;;;;;;;31.17;20.40;;;12.80;99.90;;;;;;6249897;23;20515;-44
2022/10/15 05:24:22;;;;;;;38.60;22.10;;;12.80;99.90;;;;;;6247451;23;20155;-43
2022/10/15 05:26:48;;;;;;;32.00;22.50;;;12.80;99.90;;;;;;6247354;22;20179;-44
2022/10/15 05:29:13;;;;;;;34.57;22.27;;;12.80;99.90;;;;;;6247397;23;20152;-44
2022/10/15 05:31:39;;;;;;;31.97;21.47;;;12.80;99.90;;;;;;6247256;23;20159;-43
2022/10/15 05:34:07;;;;;;;32.80;20.70;;;12.80;99.90;;;;;;6247447;23;20642;-45
2022/10/15 05:36:33;;;;;;;31.67;21.30;;;12.80;99.90;;;;;;6247159;22;20250;-44
2022/10/15 05:39:01;;;;;;;35.93;22.10;;;12.70;99.90;;;;;;6247874;23;20152;-43
2022/10/15 05:41:28;;;;;;;30.80;21.70;;;12.70;99.90;;;;;;6247080;23;20152;-44
2022/10/15 05:43:56;;;;;;;33.27;22.40;;;12.60;99.90;;;;;;6220240;23;20570;-42
2022/10/15 05:46:22;;;;;;;34.53;22.17;;;12.60;99.90;;;;;;6247245;22;20234;-44
2022/10/15 05:48:56;;;;;;;33.00;22.03;;;12.60;99.90;;;;;;6247347;23;20262;-46
2022/10/15 05:51:23;;;;;;;33.87;21.10;;;12.60;99.90;;;;;;6247347;23;20577;-44
2022/10/15 05:53:53;;;;;;;32.90;21.83;;;12.60;99.90;;;;;;6247079;23;20235;-45
2022/10/15 05:56:19;;;;;;;32.63;21.63;;;12.60;99.90;;;;;;6220156;23;20152;-43
2022/10/15 05:58:45;;;;;;;32.17;20.93;;;12.50;99.90;;;;;;6247141;22;20233;-42
2022/10/15 06:01:12;;;;;;;36.33;20.97;;;12.60;99.90;;;;;;6247064;23;20490;-44
2022/10/15 06:03:39;;;;;;;33.30;21.20;;;12.60;99.90;;;;;;6247389;23;20602;-43
2022/10/15 06:06:27;;;;;;;26.63;18.20;;;12.50;99.90;;;;;;6246967;23;20152;-46
2022/10/15 06:08:54;;;;;;;32.33;20.23;;;12.50;99.90;;;;;;6247498;23;20136;-46
2022/10/15 06:11:20;;;;;;;29.97;19.43;;;12.50;99.90;;;;;;6246873;23;20152;-45
2022/10/15 06:13:46;;;;;;;26.63;18.03;;;12.50;99.90;;;;;;6247067;23;20160;-43
2022/10/15 06:16:14;;;;;;;26.87;19.03;;;12.50;99.90;;;;;;6246976;23;20159;-45
2022/10/15 06:18:40;;;;;;;27.20;17.23;;;12.40;99.90;;;;;;6219927;23;20175;-44
2022/10/15 06:21:06;;;;;;;27.30;17.77;;;12.40;99.90;;;;;;6246908;23;20152;-45
2022/10/15 06:23:33;;;;;;;25.17;16.53;;;12.30;99.90;;;;;;6247120;23;20187;-44
2022/10/15 06:26:03;;;;;;;24.60;16.53;;;12.30;99.90;;;;;;6246853;23;20151;-44
2022/10/15 06:28:29;;;;;;;24.23;17.10;;;12.30;99.90;;;;;;6246922;22;20171;-45
2022/10/15 06:30:58;;;;;;;23.17;15.83;;;12.30;99.90;;;;;;6219977;23;20520;-44
2022/10/15 06:33:24;;;;;;;25.43;16.97;;;12.20;99.90;;;;;;6246634;23;20201;-45
2022/10/15 06:35:49;;;;;;;27.27;17.13;;;12.30;99.90;;;;;;6246650;23;20171;-43
2022/10/15 06:38:15;;;;;;;25.17;16.00;;;12.30;99.90;;;;;;6246879;22;20512;-44
2022/10/15 06:40:40;;;;;;;27.10;16.80;;;12.30;99.90;;;;;;6246744;23;20164;-43
2022/10/15 06:43:08;;;;;;;27.30;16.97;;;12.40;99.90;;;;;;6247082;23;20186;-45
2022/10/15 06:45:39;;;;;;;26.33;15.43;;;12.50;99.90;;;;;;6247616;23;20152;-42
2022/10/15 06:48:05;;;;;;;30.70;16.67;;;12.50;99.90;;;;;;6247007;22;20179;-46
2022/10/15 06:50:32;;;;;;;24.37;15.50;;;12.60;99.90;;;;;;6247120;23;20151;-44
2022/10/15 06:52:58;;;;;;;26.63;15.63;;;12.70;99.90;;;;;;6247505;23;20152;-44
2022/10/15 06:55:24;;;;;;;27.67;16.03;;;12.80;99.90;;;;;;6247548;23;20214;-43
2022/10/15 06:57:49;;;;;;;23.53;13.67;;;12.80;99.90;;;;;;6247176;22;20597;-46
2022/10/15 07:00:16;;;;;;;25.20;14.87;;;12.90;99.90;;;;;;6247538;23;20653;-44
2022/10/15 07:02:42;;;;;;;23.93;13.13;;;12.90;99.90;;;;;;6246765;23;20218;-45
2022/10/15 07:05:08;;;;;;;21.27;13.17;;;12.90;99.90;;;;;;6247141;23;20152;-43
2022/10/15 07:07:33;;;;;;;23.83;13.67;;;13.00;99.90;;;;;;6246500;22;20542;-44
2022/10/15 07:09:59;;;;;;;22.77;12.77;;;13.00;99.90;;;;;;6246773;23;20154;-45
2022/10/15 07:12:25;;;;;;;23.40;13.33;;;13.10;99.90;;;;;;6247061;23;20163;-43
2022/10/15 07:14:50;;;;;;;26.57;13.07;;;13.10;99.90;;;;;;6247182;23;20228;-43
2022/10/15 07:17:16;;;;;;;26.30;13.33;;;13.20;99.90;;;;;;6246681;22;20175;-45
2022/10/15 07:19:42;;;;;;;25.37;12.77;;;13.20;99.90;;;;;;6246509;23;20156;-46
2022/10/15 07:22:09;;;;;;;24.57;13.13;;;13.30;99.90;;;;;;6246462;23;20189;-42
2022/10/15 07:24:35;;;;;;;27.87;13.87;;;13.30;99.90;;;;;;6246323;23;20170;-43
2022/10/15 07:27:01;;;;;;;28.33;13.60;;;13.30;99.90;;;;;;6246269;22;20168;-44
2022/10/15 07:29:26;;;;;;;25.87;12.93;;;13.40;99.90;;;;;;6246514;23;20158;-42
2022/10/15 07:31:52;;;;;;;27.57;13.30;;;13.40;99.90;;;;;;6246815;23;20166;-42
2022/10/15 07:34:18;;;;;;;28.70;13.57;;;13.50;99.90;;;;;;6246655;23;20481;-41
2022/10/15 07:36:44;;;;;;;22.37;12.20;;;13.60;99.90;;;;;;6246119;22;20188;-43
2022/10/15 07:39:09;;;;;;;22.83;11.53;;;13.60;99.90;;;;;;6246328;23;20234;-45
2022/10/15 07:41:35;;;;;;;22.97;11.33;;;13.60;99.90;;;;;;6246090;23;20293;-45
2022/10/15 07:44:01;;;;;;;18.63;11.40;;;13.70;99.90;;;;;;6246618;23;20185;-45
2022/10/15 07:46:26;;;;;;;17.70;10.53;;;13.70;99.90;;;;;;6219468;22;20155;-44
2022/10/15 07:48:52;;;;;;;16.30;10.33;;;13.80;99.90;;;;;;6246693;23;20433;-42
2022/10/15 07:51:18;;;;;;;14.27;9.37;;;13.80;99.90;;;;;;6246403;23;20151;-44
2022/10/15 07:53:46;;;;;;;13.93;10.17;;;13.80;99.90;;;;;;6246444;23;20159;-46
2022/10/15 07:56:16;;;;;;;14.90;9.67;;;13.90;99.90;;;;;;6246514;23;20148;-45
2022/10/15 07:58:42;;;;;;;17.00;9.90;;;13.90;99.90;;;;;;6245965;22;20171;-43
2022/10/15 08:01:09;;;;;;;12.97;8.87;;;14.00;99.90;;;;;;6246302;23;20147;-43
2022/10/15 08:03:36;;;;;;;12.50;8.33;;;14.00;99.90;;;;;;6245825;23;20602;-46
2022/10/15 08:06:04;;;;;;;12.77;7.80;;;14.10;99.90;;;;;;6246536;23;20166;-43
2022/10/15 08:08:29;;;;;;;14.17;8.10;;;14.10;99.90;;;;;;6247699;22;20606;-45
2022/10/15 08:10:56;;;;;;;7.20;5.63;;;14.10;99.90;;;;;;6247526;23;20234;-44
2022/10/15 08:13:22;;;;;;;7.07;5.30;;;14.20;99.90;;;;;;6247344;23;20179;-44
2022/10/15 08:15:47;;;;;;;11.07;5.80;;;14.30;99.90;;;;;;6248238;23;20187;-43
2022/10/15 08:18:13;;;;;;;8.33;5.70;;;14.30;99.90;;;;;;6248156;22;20224;-46
2022/10/15 08:20:39;;;;;;;6.93;4.17;;;14.30;99.90;;;;;;6247864;23;20250;-43
2022/10/15 08:23:05;;;;;;;9.90;4.93;;;14.40;99.90;;;;;;6220899;23;20183;-44
2022/10/15 08:25:31;;;;;;;8.17;4.43;;;14.50;99.90;;;;;;6247644;23;20162;-46
2022/10/15 08:27:58;;;;;;;6.20;4.13;;;14.60;99.90;;;;;;6248194;22;20505;-43
2022/10/15 08:30:23;;;;;;;4.40;4.00;;;14.60;99.90;;;;;;6247776;23;20246;-44
2022/10/15 08:32:49;;;;;;;9.10;4.07;;;14.60;99.90;;;;;;6247986;23;20192;-44
2022/10/15 08:35:15;;;;;;;3.73;3.33;;;14.60;99.90;;;;;;6247467;23;20244;-45
2022/10/15 08:37:40;;;;;;;4.17;3.20;;;14.70;99.90;;;;;;6220939;23;20265;-44
2022/10/15 08:40:06;;;;;;;4.07;3.20;;;14.70;99.90;;;;;;6248155;23;20486;-42
2022/10/15 08:42:45;;;;;;;5.57;3.03;;;14.80;99.90;;;;;;6248179;23;20175;-44
2022/10/15 08:45:18;;;;;;;3.90;2.13;;;14.80;99.90;;;;;;6220873;23;20536;-45
2022/10/15 08:47:52;;;;;;;3.00;1.97;;;14.80;99.90;;;;;;6247959;22;20746;-43
2022/10/15 08:50:25;;;;;;;2.50;2.00;;;14.90;99.90;;;;;;6248616;23;20646;-43
2022/10/15 08:52:52;;;;;;;4.90;2.10;;;14.90;99.90;;;;;;6247987;23;20564;-44
2022/10/15 08:55:20;;;;;;;2.20;1.73;;;14.90;99.90;;;;;;6248079;23;20215;-44
2022/10/15 08:57:59;;;;;;;1.97;1.57;;;15.00;99.90;;;;;;6247355;22;20183;-43
2022/10/15 09:00:40;;;;;;;2.47;1.57;;;15.10;99.90;;;;;;6247902;23;20506;-43
2022/10/15 09:03:37;;;;;;;1.40;1.30;;;15.10;99.90;;;;;;6247606;23;20651;-45
2022/10/15 09:06:13;;;;;;;1.57;1.07;;;15.20;99.90;;;;;;6247703;23;20151;-45
2022/10/15 09:08:47;;;;;;;4.43;1.27;;;15.30;99.90;;;;;;6247770;22;20534;-45
2022/10/15 09:11:27;;;;;;;1.13;1.00;;;15.30;99.90;;;;;;6247724;23;20221;-46
2022/10/15 09:13:53;;;;;;;2.10;1.40;;;15.40;99.90;;;;;;6220738;23;20518;-44
2022/10/15 09:16:24;;;;;;;3.60;1.10;;;15.50;99.90;;;;;;6247889;23;20254;-45
2022/10/15 09:18:52;;;;;;;1.63;1.00;;;15.50;99.90;;;;;;6247124;23;20140;-44
2022/10/15 09:21:23;;;;;;;1.40;1.30;;;15.60;99.90;;;;;;6247320;23;20151;-45
2022/10/15 09:23:49;;;;;;;1.73;1.00;;;15.70;99.90;;;;;;6248424;23;20171;-46
2022/10/15 09:26:28;;;;;;;2.10;1.60;;;15.70;99.90;;;;;;6247279;23;20152;-43
2022/10/15 09:29:00;;;;;;;3.60;1.10;;;15.70;99.90;;;;;;6247733;23;20201;-44
2022/10/15 09:31:32;;;;;;;3.10;1.57;;;15.80;99.90;;;;;;6247901;23;20222;-45
2022/10/15 09:34:14;;;;;;;1.27;1.00;;;15.80;99.90;;;;;;6247803;23;20236;-45
2022/10/15 09:36:53;;;;;;;1.50;1.20;;;15.80;99.90;;;;;;6247379;22;20642;-45
2022/10/15 09:39:43;;;;;;;3.20;0.90;;;15.90;99.90;;;;;;6247846;23;20177;-45
2022/10/15 09:42:26;;;;;;;1.23;0.93;;;15.80;99.90;;;;;;6247684;23;20178;-45
2022/10/15 09:44:53;;;;;;;4.43;1.50;;;15.90;99.90;;;;;;6220374;23;20175;-47
2022/10/15 09:47:28;;;;;;;13.27;7.73;;;15.90;99.90;;;;;;6247604;22;20179;-41
2022/10/15 09:49:54;;;;;;;3.73;2.33;;;15.80;99.90;;;;;;6248489;23;20235;-43
2022/10/15 09:52:43;;;;;;;2.87;2.57;;;15.90;99.90;;;;;;6221390;23;20186;-45
2022/10/15 09:55:30;;;;;;;3.97;1.87;;;16.00;99.90;;;;;;6248433;23;20519;-39
2022/10/15 09:58:02;;;;;;;3.70;2.10;;;16.10;99.90;;;;;;6247689;22;20558;-41
2022/10/15 10:00:52;;;;;;;4.33;2.40;;;16.10;99.90;;;;;;6247365;23;20213;-39
2022/10/15 10:03:18;;;;;;;1.13;1.03;;;16.20;99.90;;;;;;6247586;23;20557;-42
2022/10/15 10:05:44;;;;;;;1.13;1.00;;;16.30;99.90;;;;;;6247683;23;20182;-40
2022/10/15 10:08:24;;;;;;;3.03;1.20;;;16.40;99.90;;;;;;6246900;22;20175;-42
2022/10/15 10:10:55;;;;;;;1.00;0.87;;;16.50;99.90;;;;;;6247084;23;20658;-39
2022/10/15 10:13:29;;;;;;;2.93;1.00;;;16.50;99.90;;;;;;6246912;23;20159;-40
2022/10/15 10:16:00;;;;;;;1.83;1.30;;;16.60;99.90;;;;;;6247520;23;20170;-42
2022/10/15 10:18:26;;;;;;;0.97;0.80;;;16.60;99.90;;;;;;6247172;22;20180;-42
2022/10/15 10:21:03;;;;;;;0.87;0.63;;;16.70;99.90;;;;;;6246952;23;20236;-41
2022/10/15 10:23:38;;;;;;;1.80;0.73;;;16.70;99.90;;;;;;6247131;23;20605;-39
2022/10/15 10:26:06;;;;;;;1.17;0.60;;;16.80;99.90;;;;;;6246669;23;20159;-42
2022/10/15 10:28:43;;;;;;;4.47;1.20;;;16.90;99.90;;;;;;6246819;22;20237;-40
2022/10/15 10:31:09;;;;;;;3.83;1.37;;;17.00;99.90;;;;;;6247522;23;20147;-38
2022/10/15 10:33:38;;;;;;;3.83;1.43;;;16.90;99.90;;;;;;6249130;23;20163;-40
2022/10/15 10:36:05;;;;;;;2.97;1.00;;;17.00;99.90;;;;;;6219698;23;20198;-38
2022/10/15 10:38:37;;;;;;;3.53;0.90;;;16.90;99.90;;;;;;6246841;22;20210;-41
2022/10/15 10:41:07;;;;;;;1.50;0.93;;;16.90;99.90;;;;;;6246580;23;20179;-40
2022/10/15 10:43:35;;;;;;;3.27;1.37;;;16.90;99.90;;;;;;6246584;23;20254;-42
2022/10/15 10:46:15;;;;;;;1.40;1.27;;;17.00;99.90;;;;;;6219800;23;20163;-40
2022/10/15 10:48:41;;;;;;;4.53;2.07;;;17.00;99.90;;;;;;6246476;22;20195;-40
2022/10/15 10:51:12;;;;;;;3.90;2.20;;;17.10;99.90;;;;;;6219573;23;20156;-40
2022/10/15 10:53:44;;;;;;;1.47;1.10;;;17.10;99.90;;;;;;6246844;23;20146;-41
2022/10/15 10:56:12;;;;;;;3.03;1.10;;;17.20;99.90;;;;;;6219966;23;20238;-39
2022/10/15 10:58:38;;;;;;;1.67;1.20;;;17.40;99.90;;;;;;6246918;22;20203;-41
2022/10/15 11:01:04;;;;;;;0.90;0.50;;;17.50;99.90;;;;;;6246332;23;20218;-39
2022/10/15 11:03:44;;;;;;;0.33;0.30;;;17.60;99.90;;;;;;6246772;23;20186;-42
2022/10/15 11:06:30;;;;;;;0.20;0.20;;;17.70;99.90;;;;;;6219543;23;20511;-41
2022/10/15 11:09:33;;;;;;;1.20;0.40;;;17.90;99.90;;;;;;6246678;23;20201;-39
2022/10/15 11:12:07;;;;;;;1.80;0.40;;;18.10;99.90;;;;;;6246290;23;20150;-40
2022/10/15 11:15:11;;;;;;;0.70;0.20;;;18.20;99.90;;;;;;6247059;23;20193;-40
2022/10/15 11:17:39;;;;;;;0.30;0.30;;;18.30;99.90;;;;;;6246294;22;20175;-38
2022/10/15 11:20:21;;;;;;;0.30;0.30;;;18.30;99.90;;;;;;6219521;23;20617;-41
2022/10/15 11:23:23;;;;;;;0.30;0.30;;;18.40;99.90;;;;;;6246763;23;20174;-38
2022/10/15 11:25:51;;;;;;;3.93;0.40;;;18.40;99.90;;;;;;6246601;23;20147;-41
2022/10/15 11:28:34;;;;;;;0.20;0.20;;;18.50;99.90;;;;;;6246197;22;20199;-42
2022/10/15 11:31:26;;;;;;;1.37;0.30;;;18.60;99.90;;;;;;6247243;23;20135;-38
2022/10/15 11:34:00;;;;;;;0.40;0.30;;;18.70;99.90;;;;;;6246541;23;20173;-42
2022/10/15 11:36:38;;;;;;;0.30;0.30;;;18.80;99.90;;;;;;6246256;22;20162;-38
2022/10/15 11:39:23;;;;;;;1.40;0.40;;;18.80;99.90;;;;;;6246368;23;20219;-43
2022/10/15 11:42:04;;;;;;;0.20;0.20;;;18.90;99.90;;;;;;6245927;23;20246;-42
2022/10/15 11:44:54;;;;;;;2.40;0.30;;;18.90;99.90;;;;;;6219490;23;20189;-39
2022/10/15 11:47:46;;;;;;;0.30;0.30;;;19.00;99.90;;;;;;6219454;23;20511;-42
2022/10/15 11:50:29;;;;;;;0.20;0.20;;;19.10;99.90;;;;;;6246254;23;20171;-39
2022/10/15 11:53:22;;;;;;;0.30;0.30;;;19.10;99.90;;;;;;6246144;23;20605;-40
2022/10/15 11:56:00;;;;;;;0.60;0.30;;;19.10;99.90;;;;;;6246737;23;20582;-40
2022/10/15 11:58:41;;;;;;;0.60;0.40;;;19.20;99.90;;;;;;6246508;22;20175;-41
2022/10/15 12:01:18;;;;;;;1.07;0.40;;;19.10;99.90;;;;;;6246534;23;20577;-41
2022/10/15 12:03:57;;;;;;;0.33;0.33;;;19.10;99.90;;;;;;6246065;23;20168;-42
2022/10/15 12:06:29;;;;;;;0.37;0.30;;;19.00;99.90;;;;;;6246910;22;20172;-41
2022/10/15 12:08:56;;;;;;;0.83;0.30;;;19.10;99.90;;;;;;6247130;23;20706;-40
2022/10/15 12:11:52;;;;;;;0.37;0.30;;;19.00;99.90;;;;;;6246719;23;20147;-42
2022/10/15 12:14:33;;;;;;;0.70;0.27;;;19.00;99.90;;;;;;6252574;23;20152;-41
2022/10/15 12:17:35;;;;;;;0.30;0.30;;;19.00;99.90;;;;;;6246360;22;20184;-42
2022/10/15 12:20:27;;;;;;;0.30;0.30;;;18.90;99.90;;;;;;6246410;23;20144;-43
2022/10/15 12:23:01;;;;;;;0.40;0.40;;;18.90;99.90;;;;;;6240622;23;20183;-42
2022/10/15 12:25:35;;;;;;;0.40;0.40;;;19.00;99.90;;;;;;6246214;23;20136;-43
2022/10/15 12:28:07;;;;;;;1.90;0.30;;;19.00;99.90;;;;;;6245888;22;20202;-41
2022/10/15 12:30:36;;;;;;;1.33;0.50;;;19.10;99.90;;;;;;6245996;23;20188;-42
2022/10/15 12:33:19;;;;;;;0.40;0.40;;;19.10;99.90;;;;;;6219045;23;20166;-41
2022/10/15 12:35:54;;;;;;;0.40;0.40;;;19.20;99.90;;;;;;6219036;23;20499;-40
2022/10/15 12:38:26;;;;;;;0.27;0.27;;;19.20;99.90;;;;;;6246188;22;20171;-41
2022/10/15 12:41:02;;;;;;;0.67;0.50;;;19.20;99.90;;;;;;6246121;23;20140;-40
2022/10/15 12:43:30;;;;;;;2.33;0.30;;;19.20;99.90;;;;;;6219402;23;20183;-42
2022/10/15 12:45:58;;;;;;;0.33;0.30;;;19.20;99.90;;;;;;6246086;23;20156;-41
2022/10/15 12:48:33;;;;;;;0.37;0.30;;;19.20;99.90;;;;;;6245891;22;20175;-42
2022/10/15 12:51:20;;;;;;;1.20;0.57;;;19.20;99.90;;;;;;6219197;23;20158;-40
2022/10/15 12:53:49;;;;;;;0.50;0.50;;;19.20;99.90;;;;;;6246917;23;20230;-40
2022/10/15 12:56:14;;;;;;;0.30;0.30;;;19.20;99.90;;;;;;6247868;23;20156;-41
2022/10/15 12:58:45;;;;;;;0.37;0.30;;;19.20;99.90;;;;;;6247743;22;20183;-42